createdAt,value
2023-01-29T00:01:43.386Z,38.43
2023-01-29T00:04:12.886Z,38.73
2023-01-29T00:06:40.884Z,39.17
2023-01-29T00:09:08.817Z,37.90
2023-01-29T00:11:37.105Z,37.67
2023-01-29T00:14:05.079Z,37.50
2023-01-29T00:16:33.006Z,37.27
2023-01-29T00:19:02.283Z,37.17
2023-01-29T00:21:32.156Z,37.37
2023-01-29T00:24:00.690Z,38.70
2023-01-29T00:26:28.930Z,38.47
2023-01-29T00:29:00.461Z,37.23
2023-01-29T00:31:28.480Z,39.23
2023-01-29T00:33:56.421Z,38.50
2023-01-29T00:36:24.846Z,37.83
2023-01-29T00:38:58.765Z,37.37
2023-01-29T00:41:46.099Z,37.90
2023-01-29T00:44:31.449Z,38.10
2023-01-29T00:46:59.820Z,36.03
2023-01-29T00:49:27.691Z,37.90
2023-01-29T00:52:13.240Z,37.43
2023-01-29T00:54:42.603Z,36.80
2023-01-29T00:57:10.558Z,37.13
2023-01-29T00:59:38.884Z,35.63
2023-01-29T01:02:24.371Z,36.40
2023-01-29T01:04:52.199Z,36.67
2023-01-29T01:07:20.042Z,38.63
2023-01-29T01:10:06.511Z,36.77
2023-01-29T01:12:35.033Z,35.30
2023-01-29T01:15:02.848Z,37.20
2023-01-29T01:17:30.887Z,35.87
2023-01-29T01:19:58.734Z,36.27
2023-01-29T01:22:26.551Z,36.10
2023-01-29T01:24:55.746Z,36.00
2023-01-29T01:27:23.584Z,35.70
2023-01-29T01:29:51.440Z,34.23
2023-01-29T01:32:19.300Z,35.50
2023-01-29T01:34:47.138Z,36.73
2023-01-29T01:37:14.952Z,35.37
2023-01-29T01:39:42.786Z,36.80
2023-01-29T01:42:14.425Z,37.63
2023-01-29T01:45:08.081Z,38.50
2023-01-29T01:47:40.119Z,37.93
2023-01-29T01:50:13.696Z,36.00
2023-01-29T01:52:46.205Z,37.77
2023-01-29T01:55:18.269Z,36.90
2023-01-29T01:57:51.897Z,37.63
2023-01-29T02:00:23.173Z,35.23
2023-01-29T02:03:08.617Z,37.27
2023-01-29T02:05:55.598Z,37.10
2023-01-29T02:08:48.483Z,36.27
2023-01-29T02:11:17.000Z,36.87
2023-01-29T02:13:46.337Z,35.83
2023-01-29T02:16:14.142Z,36.47
2023-01-29T02:18:41.969Z,37.60
2023-01-29T02:21:29.090Z,37.33
2023-01-29T02:24:27.024Z,36.97
2023-01-29T02:27:07.604Z,37.43
2023-01-29T02:29:49.175Z,35.27
2023-01-29T02:32:25.539Z,36.77
2023-01-29T02:35:24.801Z,35.87
2023-01-29T02:37:58.628Z,36.20
2023-01-29T02:40:32.219Z,34.87
2023-01-29T02:43:09.402Z,36.10
2023-01-29T02:45:48.384Z,35.70
2023-01-29T02:48:20.666Z,35.70
2023-01-29T02:50:55.035Z,36.47
2023-01-29T02:53:28.765Z,36.30
2023-01-29T02:56:01.204Z,36.27
2023-01-29T02:58:35.587Z,34.23
2023-01-29T03:01:09.935Z,35.60
2023-01-29T03:03:41.573Z,36.13
2023-01-29T03:06:20.713Z,35.73
2023-01-29T03:08:55.476Z,33.97
2023-01-29T03:11:23.636Z,37.00
2023-01-29T03:13:57.195Z,35.73
2023-01-29T03:16:32.326Z,36.67
2023-01-29T03:19:04.355Z,36.90
2023-01-29T03:21:55.323Z,35.37
2023-01-29T03:24:52.887Z,38.00
2023-01-29T03:27:46.396Z,34.80
2023-01-29T03:30:34.952Z,35.43
2023-01-29T03:33:27.224Z,36.10
2023-01-29T03:36:00.805Z,37.77
2023-01-29T03:38:29.738Z,38.07
2023-01-29T03:41:01.230Z,37.53
2023-01-29T03:43:36.309Z,38.37
2023-01-29T03:46:09.769Z,38.63
2023-01-29T03:48:45.642Z,38.67
2023-01-29T03:51:23.881Z,39.43
2023-01-29T03:53:58.950Z,39.07
2023-01-29T03:56:40.623Z,38.93
2023-01-29T03:59:20.621Z,38.23
2023-01-29T04:02:19.249Z,38.33
2023-01-29T04:04:53.151Z,37.77
2023-01-29T04:07:29.720Z,38.43
2023-01-29T04:10:07.670Z,40.87
2023-01-29T04:12:42.074Z,37.37
2023-01-29T04:15:14.700Z,38.70
2023-01-29T04:17:46.826Z,38.27
2023-01-29T04:20:24.666Z,38.10
2023-01-29T04:22:53.387Z,40.23
2023-01-29T04:25:26.518Z,40.13
2023-01-29T04:28:06.018Z,40.13
2023-01-29T04:30:44.853Z,39.77
2023-01-29T04:33:24.706Z,39.90
2023-01-29T04:36:08.331Z,39.90
2023-01-29T04:38:48.444Z,40.97
2023-01-29T04:41:22.969Z,38.87
2023-01-29T04:44:01.136Z,39.17
2023-01-29T04:46:38.162Z,39.80
2023-01-29T04:49:17.571Z,41.43
2023-01-29T04:51:52.747Z,39.30
2023-01-29T04:54:32.906Z,39.70
2023-01-29T04:57:09.958Z,38.70
2023-01-29T04:59:42.482Z,41.20
2023-01-29T05:02:13.120Z,41.53
2023-01-29T05:04:43.681Z,40.23
2023-01-29T05:07:15.337Z,39.63
2023-01-29T05:09:45.937Z,41.47
2023-01-29T05:12:16.917Z,39.63
2023-01-29T05:14:47.531Z,41.50
2023-01-29T05:17:17.507Z,38.77
2023-01-29T05:19:46.830Z,40.77
2023-01-29T05:22:18.712Z,40.97
2023-01-29T05:24:46.565Z,41.23
2023-01-29T05:27:36.938Z,40.73
2023-01-29T05:30:05.881Z,40.60
2023-01-29T05:32:33.733Z,40.47
2023-01-29T05:35:01.507Z,39.70
2023-01-29T05:37:30.652Z,41.80
2023-01-29T05:39:58.447Z,41.33
2023-01-29T05:42:26.353Z,40.27
2023-01-29T05:44:54.295Z,39.97
2023-01-29T05:47:22.605Z,40.53
2023-01-29T05:49:50.341Z,40.30
2023-01-29T05:52:18.078Z,41.33
2023-01-29T05:54:47.572Z,40.47
2023-01-29T05:57:16.076Z,40.77
2023-01-29T05:59:43.870Z,40.03
2023-01-29T06:02:11.667Z,39.57
2023-01-29T06:04:39.424Z,41.30
2023-01-29T06:07:07.176Z,40.43
2023-01-29T06:09:34.913Z,40.07
2023-01-29T06:12:06.132Z,39.43
2023-01-29T06:14:33.918Z,38.93
2023-01-29T06:17:01.696Z,37.37
2023-01-29T06:19:29.438Z,38.13
2023-01-29T06:21:57.205Z,38.57
2023-01-29T06:24:24.953Z,38.70
2023-01-29T06:26:52.724Z,37.67
2023-01-29T06:29:21.910Z,36.50
2023-01-29T06:31:49.807Z,37.53
2023-01-29T06:34:18.236Z,35.57
2023-01-29T06:36:45.954Z,37.60
2023-01-29T06:39:13.737Z,36.33
2023-01-29T06:41:41.489Z,37.13
2023-01-29T06:44:09.266Z,35.13
2023-01-29T06:46:38.591Z,36.77
2023-01-29T06:49:06.350Z,35.83
2023-01-29T06:51:34.208Z,36.63
2023-01-29T06:54:02.687Z,37.07
2023-01-29T06:56:30.451Z,37.83
2023-01-29T06:58:58.186Z,36.17
2023-01-29T07:01:35.772Z,36.43
2023-01-29T07:04:05.910Z,36.07
2023-01-29T07:06:33.860Z,35.13
2023-01-29T07:09:01.730Z,36.20
2023-01-29T07:11:29.690Z,34.37
2023-01-29T07:13:57.809Z,35.93
2023-01-29T07:16:26.323Z,34.97
2023-01-29T07:18:54.465Z,35.67
2023-01-29T07:21:23.736Z,36.13
2023-01-29T07:23:52.154Z,35.23
2023-01-29T07:26:20.041Z,36.10
2023-01-29T07:28:47.791Z,35.00
2023-01-29T07:31:15.850Z,33.97
2023-01-29T07:33:44.778Z,35.00
2023-01-29T07:36:13.837Z,34.57
2023-01-29T07:38:43.079Z,35.60
2023-01-29T07:41:12.725Z,35.77
2023-01-29T07:43:40.628Z,34.43
2023-01-29T07:46:08.527Z,36.23
2023-01-29T07:48:37.006Z,34.33
2023-01-29T07:51:04.975Z,35.27
2023-01-29T07:53:32.839Z,35.03
2023-01-29T07:56:01.968Z,36.63
2023-01-29T07:58:29.761Z,36.97
2023-01-29T08:00:57.636Z,36.53
2023-01-29T08:03:25.410Z,36.30
2023-01-29T08:05:53.146Z,35.40
2023-01-29T08:08:20.888Z,34.47
2023-01-29T08:10:48.652Z,34.13
2023-01-29T08:13:17.803Z,34.37
2023-01-29T08:15:46.111Z,35.00
2023-01-29T08:18:14.474Z,36.03
2023-01-29T08:20:42.231Z,35.30
2023-01-29T08:23:14.708Z,34.57
2023-01-29T08:25:42.877Z,36.30
2023-01-29T08:28:12.272Z,35.07
2023-01-29T08:30:41.512Z,35.27
2023-01-29T08:33:09.331Z,34.27
2023-01-29T08:35:37.455Z,34.50
2023-01-29T08:38:06.794Z,34.77
2023-01-29T08:40:35.611Z,36.70
2023-01-29T08:43:06.967Z,36.77
2023-01-29T08:45:37.911Z,36.17
2023-01-29T08:48:07.800Z,36.57
2023-01-29T08:50:36.284Z,36.60
2023-01-29T08:53:07.524Z,35.80
2023-01-29T08:55:37.005Z,34.13
2023-01-29T08:58:05.326Z,33.60
2023-01-29T09:00:33.482Z,33.47
2023-01-29T09:03:01.324Z,35.13
2023-01-29T09:05:30.620Z,33.50
2023-01-29T09:07:58.732Z,33.90
2023-01-29T09:10:26.817Z,34.27
2023-01-29T09:12:54.594Z,34.50
2023-01-29T09:15:22.412Z,34.83
2023-01-29T09:17:50.373Z,35.20
2023-01-29T09:20:19.463Z,43.10
2023-01-29T09:22:49.396Z,34.00
2023-01-29T09:25:17.666Z,33.03
2023-01-29T09:27:45.746Z,33.93
2023-01-29T09:30:14.332Z,31.27
2023-01-29T09:32:57.535Z,33.33
2023-01-29T09:35:25.503Z,31.27
2023-01-29T09:37:54.610Z,32.13
2023-01-29T09:40:27.647Z,31.67
2023-01-29T09:43:00.369Z,31.00
2023-01-29T09:45:29.661Z,31.87
2023-01-29T09:48:00.230Z,29.47
2023-01-29T09:50:32.390Z,29.50
2023-01-29T09:53:06.228Z,28.60
2023-01-29T09:55:39.910Z,29.57
2023-01-29T09:58:16.856Z,29.53
2023-01-29T10:00:51.559Z,28.87
2023-01-29T10:03:37.270Z,30.47
2023-01-29T10:06:19.809Z,27.80
2023-01-29T10:09:04.815Z,27.90
2023-01-29T10:11:44.603Z,28.90
2023-01-29T10:14:19.801Z,29.50
2023-01-29T10:17:03.842Z,30.17
2023-01-29T10:19:47.496Z,30.03
2023-01-29T10:22:40.341Z,30.83
2023-01-29T10:25:13.026Z,29.27
2023-01-29T10:27:47.042Z,30.40
2023-01-29T10:30:24.490Z,30.17
2023-01-29T10:32:53.293Z,27.43
2023-01-29T10:35:24.040Z,27.63
2023-01-29T10:37:54.536Z,27.57
2023-01-29T10:40:28.849Z,27.70
2023-01-29T10:43:04.523Z,28.23
2023-01-29T10:45:41.079Z,28.23
2023-01-29T10:48:30.054Z,28.03
2023-01-29T10:51:08.331Z,27.53
2023-01-29T10:53:49.789Z,28.03
2023-01-29T10:56:33.919Z,26.23
2023-01-29T10:59:06.186Z,26.60
2023-01-29T11:01:34.157Z,28.43
2023-01-29T11:04:04.084Z,28.27
2023-01-29T11:06:34.229Z,27.60
2023-01-29T11:09:09.094Z,26.70
2023-01-29T11:11:45.025Z,27.57
2023-01-29T11:14:17.292Z,26.87
2023-01-29T11:16:47.384Z,26.73
2023-01-29T11:19:16.585Z,27.53
2023-01-29T11:21:57.655Z,28.43
2023-01-29T11:24:26.090Z,27.00
2023-01-29T11:26:58.210Z,27.33
2023-01-29T11:29:33.885Z,28.10
2023-01-29T11:32:04.757Z,26.73
2023-01-29T11:34:32.615Z,27.00
2023-01-29T11:37:02.171Z,28.60
2023-01-29T11:39:31.713Z,27.03
2023-01-29T11:42:03.677Z,27.43
2023-01-29T11:44:34.192Z,27.93
2023-01-29T11:47:13.618Z,27.37
2023-01-29T11:49:45.950Z,28.47
2023-01-29T11:52:16.127Z,27.60
2023-01-29T11:54:48.344Z,26.87
2023-01-29T11:57:27.531Z,27.70
2023-01-29T11:59:57.565Z,26.33
2023-01-29T12:02:31.410Z,26.13
2023-01-29T12:05:02.245Z,26.40
2023-01-29T12:07:31.443Z,23.63
2023-01-29T12:10:00.415Z,23.97
2023-01-29T12:12:32.886Z,25.77
2023-01-29T12:15:16.971Z,23.63
2023-01-29T12:17:52.065Z,24.23
2023-01-29T12:20:26.483Z,24.10
2023-01-29T12:23:03.444Z,22.57
2023-01-29T12:25:41.560Z,22.70
2023-01-29T12:28:21.287Z,23.80
2023-01-29T12:31:00.938Z,22.07
2023-01-29T12:33:40.130Z,24.97
2023-01-29T12:36:14.726Z,22.67
2023-01-29T12:38:45.817Z,24.10
2023-01-29T12:41:29.506Z,23.73
2023-01-29T12:44:03.772Z,22.87
2023-01-29T12:46:38.992Z,22.90
2023-01-29T12:49:16.391Z,22.23
2023-01-29T12:51:54.306Z,22.80
2023-01-29T12:54:27.846Z,25.33
2023-01-29T12:57:01.397Z,24.03
2023-01-29T12:59:34.153Z,22.80
2023-01-29T13:02:13.022Z,22.80
2023-01-29T13:04:45.485Z,24.73
2023-01-29T13:07:18.818Z,23.57
2023-01-29T13:09:51.759Z,23.13
2023-01-29T13:12:23.895Z,22.63
2023-01-29T13:14:57.191Z,23.87
2023-01-29T13:17:31.485Z,22.83
2023-01-29T13:20:04.282Z,24.53
2023-01-29T13:22:37.821Z,19.97
2023-01-29T13:25:06.386Z,19.80
2023-01-29T13:27:36.274Z,22.57
2023-01-29T13:30:06.597Z,22.17
2023-01-29T13:32:36.929Z,22.17
2023-01-29T13:35:07.063Z,20.83
2023-01-29T13:37:37.310Z,17.93
2023-01-29T13:40:08.677Z,19.23
2023-01-29T13:42:43.604Z,18.43
2023-01-29T13:45:21.639Z,20.87
2023-01-29T13:47:51.030Z,20.07
2023-01-29T13:50:25.033Z,22.67
2023-01-29T13:52:58.936Z,22.40
2023-01-29T13:55:32.001Z,24.10
2023-01-29T13:58:00.874Z,23.73
2023-01-29T14:01:01.523Z,26.47
2023-01-29T14:04:09.984Z,25.17
2023-01-29T14:06:52.088Z,25.27
2023-01-29T14:09:34.659Z,24.10
2023-01-29T14:12:02.579Z,24.67
2023-01-29T14:15:00.035Z,24.40
2023-01-29T14:17:30.386Z,28.17
2023-01-29T14:20:03.544Z,24.23
2023-01-29T14:22:33.957Z,26.03
2023-01-29T14:25:06.009Z,24.90
2023-01-29T14:27:35.583Z,24.93
2023-01-29T14:30:10.883Z,24.20
2023-01-29T14:32:41.484Z,25.83
2023-01-29T14:35:20.209Z,27.57
2023-01-29T14:37:51.538Z,25.70
2023-01-29T14:40:23.693Z,24.47
2023-01-29T14:42:58.882Z,23.97
2023-01-29T14:45:28.947Z,24.57
2023-01-29T14:48:18.608Z,22.90
2023-01-29T14:51:07.946Z,24.00
2023-01-29T14:53:54.152Z,23.13
2023-01-29T14:56:28.728Z,23.80
2023-01-29T14:59:13.292Z,22.70
2023-01-29T15:01:48.095Z,22.07
2023-01-29T15:04:24.155Z,22.13
2023-01-29T15:06:56.623Z,22.50
2023-01-29T15:09:37.084Z,22.43
2023-01-29T15:12:15.300Z,22.77
2023-01-29T15:14:47.892Z,21.03
2023-01-29T15:17:23.061Z,23.20
2023-01-29T15:19:52.213Z,23.53
2023-01-29T15:22:22.295Z,22.77
2023-01-29T15:25:05.177Z,28.20
2023-01-29T15:27:33.292Z,25.60
2023-01-29T15:30:04.040Z,23.50
2023-01-29T15:32:34.961Z,21.23
2023-01-29T15:35:09.495Z,22.43
2023-01-29T15:37:38.054Z,22.20
2023-01-29T15:40:16.220Z,19.30
2023-01-29T15:42:46.636Z,21.10
2023-01-29T15:45:25.853Z,19.87
2023-01-29T15:47:55.985Z,21.47
2023-01-29T15:50:25.400Z,19.43
2023-01-29T15:52:55.456Z,18.67
2023-01-29T15:55:24.830Z,17.27
2023-01-29T15:57:53.163Z,17.73
2023-01-29T16:00:24.968Z,16.03
2023-01-29T16:02:52.904Z,19.53
2023-01-29T16:05:24.769Z,20.17
2023-01-29T16:07:56.489Z,15.93
2023-01-29T16:10:27.580Z,16.50
2023-01-29T16:12:56.292Z,17.03
2023-01-29T16:15:33.498Z,17.33
2023-01-29T16:18:03.455Z,15.60
2023-01-29T16:20:39.770Z,15.20
2023-01-29T16:23:18.289Z,15.57
2023-01-29T16:25:46.667Z,16.43
2023-01-29T16:28:14.511Z,17.40
2023-01-29T16:30:42.383Z,17.30
2023-01-29T16:33:14.160Z,16.77
2023-01-29T16:35:42.737Z,17.07
2023-01-29T16:38:25.959Z,19.03
2023-01-29T16:41:08.655Z,17.33
2023-01-29T16:43:50.928Z,18.43
2023-01-29T16:46:26.331Z,18.73
2023-01-29T16:48:55.012Z,18.93
2023-01-29T16:51:27.030Z,18.93
2023-01-29T16:54:02.950Z,18.57
2023-01-29T16:56:33.611Z,18.93
2023-01-29T16:59:04.316Z,17.87
2023-01-29T17:01:33.434Z,19.37
2023-01-29T17:04:07.605Z,18.60
2023-01-29T17:06:36.319Z,19.03
2023-01-29T17:09:06.964Z,17.60
2023-01-29T17:11:39.478Z,17.83
2023-01-29T17:14:08.806Z,18.87
2023-01-29T17:16:38.168Z,19.10
2023-01-29T17:19:17.770Z,18.40
2023-01-29T17:21:45.700Z,19.80
2023-01-29T17:24:14.895Z,20.30
2023-01-29T17:26:43.246Z,18.53
2023-01-29T17:29:15.428Z,19.83
2023-01-29T17:31:43.410Z,19.90
2023-01-29T17:34:14.325Z,20.70
2023-01-29T17:36:42.358Z,22.53
2023-01-29T17:39:20.101Z,21.10
2023-01-29T17:41:50.625Z,20.10
2023-01-29T17:44:18.562Z,20.87
2023-01-29T17:46:47.420Z,20.07
2023-01-29T17:49:23.355Z,20.00
2023-01-29T17:51:51.558Z,19.33
2023-01-29T17:54:21.566Z,20.03
2023-01-29T17:56:49.665Z,20.97
2023-01-29T17:59:19.207Z,20.23
2023-01-29T18:01:48.206Z,21.20
2023-01-29T18:04:16.317Z,21.43
2023-01-29T18:06:46.352Z,21.20
2023-01-29T18:09:14.762Z,21.90
2023-01-29T18:11:44.133Z,22.13
2023-01-29T18:14:14.043Z,20.97
2023-01-29T18:16:44.018Z,20.70
2023-01-29T18:19:15.559Z,21.17
2023-01-29T18:21:43.453Z,21.30
2023-01-29T18:24:11.185Z,21.43
2023-01-29T18:26:39.247Z,20.90
2023-01-29T18:29:08.657Z,21.30
2023-01-29T18:31:36.632Z,21.63
2023-01-29T18:34:04.669Z,21.00
2023-01-29T18:36:32.496Z,19.90
2023-01-29T18:39:00.219Z,20.37
2023-01-29T18:41:27.972Z,20.07
2023-01-29T18:43:55.774Z,20.07
2023-01-29T18:46:25.118Z,20.57
2023-01-29T18:48:52.901Z,21.07
2023-01-29T18:51:20.686Z,21.97
2023-01-29T18:53:50.907Z,19.90
2023-01-29T18:56:19.280Z,20.00
2023-01-29T18:58:51.968Z,18.37
2023-01-29T19:01:21.136Z,19.60
2023-01-29T19:03:50.305Z,19.17
2023-01-29T19:06:18.086Z,19.17
2023-01-29T19:08:47.314Z,16.87
2023-01-29T19:11:15.178Z,17.20
2023-01-29T19:13:43.139Z,16.53
2023-01-29T19:16:12.599Z,16.77
2023-01-29T19:18:40.507Z,18.80
2023-01-29T19:21:11.840Z,16.97
2023-01-29T19:23:39.801Z,15.70
2023-01-29T19:26:08.395Z,14.27
2023-01-29T19:28:36.375Z,18.10
2023-01-29T19:31:04.286Z,17.67
2023-01-29T19:33:32.105Z,17.10
2023-01-29T19:36:00.720Z,17.70
2023-01-29T19:38:33.341Z,19.00
2023-01-29T19:41:01.310Z,18.73
2023-01-29T19:43:30.488Z,19.93
2023-01-29T19:45:59.319Z,19.30
2023-01-29T19:48:27.737Z,19.60
2023-01-29T19:50:56.916Z,19.73
2023-01-29T19:53:25.586Z,20.07
2023-01-29T19:56:02.249Z,18.87
2023-01-29T19:58:30.890Z,20.10
2023-01-29T20:00:59.877Z,18.97
2023-01-29T20:03:29.434Z,18.37
2023-01-29T20:05:57.284Z,19.80
2023-01-29T20:08:25.122Z,18.47
2023-01-29T20:10:52.893Z,17.57
2023-01-29T20:13:22.019Z,18.03
2023-01-29T20:15:51.208Z,16.80
2023-01-29T20:18:19.941Z,17.57
2023-01-29T20:20:49.867Z,17.83
2023-01-29T20:23:35.299Z,16.17
2023-01-29T20:26:05.163Z,16.80
2023-01-29T20:28:34.559Z,15.93
2023-01-29T20:31:02.770Z,16.80
2023-01-29T20:33:31.108Z,17.47
2023-01-29T20:36:00.261Z,17.60
2023-01-29T20:38:31.403Z,17.43
2023-01-29T20:41:04.809Z,17.47
2023-01-29T20:43:34.310Z,16.53
2023-01-29T20:46:02.758Z,18.23
2023-01-29T20:48:31.088Z,18.50
2023-01-29T20:51:04.459Z,17.60
2023-01-29T20:53:32.201Z,19.20
2023-01-29T20:56:00.107Z,16.47
2023-01-29T20:58:28.540Z,16.33
2023-01-29T21:00:57.903Z,18.03
2023-01-29T21:03:25.704Z,17.87
2023-01-29T21:05:54.272Z,17.77
2023-01-29T21:08:22.119Z,17.77
2023-01-29T21:10:50.576Z,17.40
2023-01-29T21:13:18.297Z,18.23
2023-01-29T21:15:46.431Z,16.50
2023-01-29T21:18:15.627Z,16.83
2023-01-29T21:20:43.400Z,17.80
2023-01-29T21:23:11.595Z,16.67
2023-01-29T21:25:39.621Z,18.37
2023-01-29T21:28:07.916Z,17.60
2023-01-29T21:30:35.747Z,18.13
2023-01-29T21:33:03.627Z,18.63
2023-01-29T21:35:33.104Z,18.57
2023-01-29T21:38:00.905Z,18.90
2023-01-29T21:40:30.470Z,19.20
2023-01-29T21:43:12.354Z,18.90
2023-01-29T21:45:41.028Z,19.03
2023-01-29T21:48:09.389Z,18.77
2023-01-29T21:50:38.961Z,18.90
2023-01-29T21:53:06.783Z,18.90
2023-01-29T21:55:34.652Z,18.50
2023-01-29T21:58:02.401Z,18.43
2023-01-29T22:00:30.174Z,18.90
2023-01-29T22:02:57.989Z,19.37
2023-01-29T22:05:26.446Z,19.43
2023-01-29T22:07:56.430Z,18.70
2023-01-29T22:10:24.159Z,18.10
2023-01-29T22:12:51.990Z,20.77
2023-01-29T22:15:21.125Z,19.63
2023-01-29T22:17:50.840Z,18.43
2023-01-29T22:20:19.520Z,20.07
2023-01-29T22:22:47.529Z,20.47
2023-01-29T22:25:19.938Z,20.90
2023-01-29T22:27:47.851Z,19.20
2023-01-29T22:30:16.190Z,21.17
2023-01-29T22:32:44.239Z,19.93
2023-01-29T22:35:12.013Z,21.70
2023-01-29T22:37:39.788Z,19.93
2023-01-29T22:40:08.726Z,20.70
2023-01-29T22:42:37.864Z,20.90
2023-01-29T22:45:06.257Z,21.57
2023-01-29T22:47:34.271Z,20.90
2023-01-29T22:50:02.019Z,20.27
2023-01-29T22:52:38.276Z,19.07
2023-01-29T22:55:08.798Z,21.27
2023-01-29T22:57:38.349Z,22.23
2023-01-29T23:00:09.927Z,22.23
2023-01-29T23:02:38.095Z,20.87
2023-01-29T23:05:06.866Z,21.53
2023-01-29T23:07:35.260Z,21.73
2023-01-29T23:10:03.419Z,22.00
2023-01-29T23:12:31.161Z,21.10
2023-01-29T23:15:00.451Z,19.97
2023-01-29T23:17:28.560Z,21.30
2023-01-29T23:19:56.563Z,20.70
2023-01-29T23:22:24.344Z,22.10
2023-01-29T23:24:53.016Z,21.37
2023-01-29T23:27:20.076Z,22.03
2023-01-29T23:29:49.192Z,21.83
2023-01-29T23:32:20.437Z,22.10
2023-01-29T23:34:48.193Z,22.40
2023-01-29T23:37:15.909Z,21.47
2023-01-29T23:39:43.611Z,20.47
2023-01-29T23:42:11.471Z,24.07
2023-01-29T23:44:40.229Z,23.13
2023-01-29T23:47:07.993Z,22.50
2023-01-29T23:49:37.337Z,21.73
2023-01-29T23:52:05.239Z,22.50
2023-01-29T23:54:33.134Z,22.13
2023-01-29T23:57:00.900Z,21.90
2023-01-29T23:59:28.978Z,22.83
